sensor_id;sensor_type;location;lat;lon;timestamp;P1;durP1;ratioP1;P2;durP2;ratioP2
69203;SDS011;56317;27.658;85.326;2022-11-20T00:00:20;125.22;;;71.93;;
69203;SDS011;56317;27.658;85.326;2022-11-20T00:02:47;121.10;;;67.30;;
69203;SDS011;56317;27.658;85.326;2022-11-20T00:05:14;108.70;;;60.05;;
69203;SDS011;56317;27.658;85.326;2022-11-20T00:07:42;111.72;;;62.53;;
69203;SDS011;56317;27.658;85.326;2022-11-20T00:10:09;115.70;;;63.17;;
69203;SDS011;56317;27.658;85.326;2022-11-20T00:12:36;115.88;;;62.10;;
69203;SDS011;56317;27.658;85.326;2022-11-20T00:15:04;113.30;;;61.03;;
69203;SDS011;56317;27.658;85.326;2022-11-20T00:17:31;114.47;;;61.88;;
69203;SDS011;56317;27.658;85.326;2022-11-20T00:19:58;109.15;;;61.17;;
69203;SDS011;56317;27.658;85.326;2022-11-20T00:22:25;106.15;;;61.03;;
69203;SDS011;56317;27.658;85.326;2022-11-20T00:24:53;107.22;;;60.78;;
69203;SDS011;56317;27.658;85.326;2022-11-20T00:27:20;111.13;;;64.35;;
69203;SDS011;56317;27.658;85.326;2022-11-20T00:29:47;110.03;;;61.40;;
69203;SDS011;56317;27.658;85.326;2022-11-20T00:32:14;118.50;;;65.15;;
69203;SDS011;56317;27.658;85.326;2022-11-20T00:34:41;104.88;;;61.30;;
69203;SDS011;56317;27.658;85.326;2022-11-20T00:37:09;108.20;;;63.97;;
69203;SDS011;56317;27.658;85.326;2022-11-20T00:39:36;128.25;;;71.40;;
69203;SDS011;56317;27.658;85.326;2022-11-20T00:42:03;130.73;;;76.75;;
69203;SDS011;56317;27.658;85.326;2022-11-20T00:44:30;145.35;;;83.38;;
69203;SDS011;56317;27.658;85.326;2022-11-20T00:46:58;130.15;;;77.18;;
69203;SDS011;56317;27.658;85.326;2022-11-20T00:49:25;134.77;;;77.07;;
69203;SDS011;56317;27.658;85.326;2022-11-20T00:51:52;120.60;;;75.15;;
69203;SDS011;56317;27.658;85.326;2022-11-20T00:54:19;131.77;;;73.95;;
69203;SDS011;56317;27.658;85.326;2022-11-20T00:56:46;127.85;;;74.30;;
69203;SDS011;56317;27.658;85.326;2022-11-20T00:59:15;124.07;;;72.65;;
69203;SDS011;56317;27.658;85.326;2022-11-20T01:01:42;130.90;;;72.25;;
69203;SDS011;56317;27.658;85.326;2022-11-20T01:04:09;126.70;;;70.38;;
69203;SDS011;56317;27.658;85.326;2022-11-20T01:06:37;136.07;;;75.45;;
69203;SDS011;56317;27.658;85.326;2022-11-20T01:09:07;140.32;;;77.60;;
69203;SDS011;56317;27.658;85.326;2022-11-20T01:11:38;133.13;;;76.25;;
69203;SDS011;56317;27.658;85.326;2022-11-20T01:14:09;136.38;;;77.00;;
69203;SDS011;56317;27.658;85.326;2022-11-20T01:16:40;123.10;;;72.18;;
69203;SDS011;56317;27.658;85.326;2022-11-20T01:19:14;128.80;;;74.40;;
69203;SDS011;56317;27.658;85.326;2022-11-20T01:21:50;131.07;;;74.22;;
69203;SDS011;56317;27.658;85.326;2022-11-20T01:24:20;98.30;;;55.70;;
69203;SDS011;56317;27.658;85.326;2022-11-20T01:26:48;122.78;;;73.15;;
69203;SDS011;56317;27.658;85.326;2022-11-20T01:29:21;121.80;;;70.45;;
69203;SDS011;56317;27.658;85.326;2022-11-20T01:31:50;122.70;;;74.20;;
69203;SDS011;56317;27.658;85.326;2022-11-20T01:34:18;117.38;;;70.07;;
69203;SDS011;56317;27.658;85.326;2022-11-20T01:36:47;122.20;;;73.60;;
69203;SDS011;56317;27.658;85.326;2022-11-20T01:39:16;134.15;;;76.55;;
69203;SDS011;56317;27.658;85.326;2022-11-20T01:41:49;143.02;;;82.47;;
69203;SDS011;56317;27.658;85.326;2022-11-20T01:47:16;137.30;;;81.50;;
69203;SDS011;56317;27.658;85.326;2022-11-20T01:50:06;135.55;;;82.22;;
69203;SDS011;56317;27.658;85.326;2022-11-20T01:52:38;134.77;;;78.28;;
69203;SDS011;56317;27.658;85.326;2022-11-20T01:55:29;129.13;;;79.38;;
69203;SDS011;56317;27.658;85.326;2022-11-20T01:57:57;130.32;;;78.22;;
69203;SDS011;56317;27.658;85.326;2022-11-20T02:00:28;129.43;;;78.95;;
69203;SDS011;56317;27.658;85.326;2022-11-20T02:02:59;126.28;;;72.90;;
69203;SDS011;56317;27.658;85.326;2022-11-20T02:08:17;115.78;;;68.90;;
69203;SDS011;56317;27.658;85.326;2022-11-20T02:10:45;114.25;;;63.97;;
69203;SDS011;56317;27.658;85.326;2022-11-20T02:13:12;119.45;;;69.65;;
69203;SDS011;56317;27.658;85.326;2022-11-20T02:15:59;113.60;;;67.20;;
69203;SDS011;56317;27.658;85.326;2022-11-20T02:18:27;120.53;;;69.78;;
69203;SDS011;56317;27.658;85.326;2022-11-20T02:20:56;117.40;;;66.32;;
69203;SDS011;56317;27.658;85.326;2022-11-20T02:26:23;131.55;;;76.53;;
69203;SDS011;56317;27.658;85.326;2022-11-20T02:28:52;122.43;;;73.40;;
69203;SDS011;56317;27.658;85.326;2022-11-20T02:31:20;127.78;;;73.75;;
69203;SDS011;56317;27.658;85.326;2022-11-20T02:33:47;124.65;;;71.55;;
69203;SDS011;56317;27.658;85.326;2022-11-20T02:36:20;118.32;;;71.40;;
69203;SDS011;56317;27.658;85.326;2022-11-20T02:38:47;112.18;;;66.35;;
69203;SDS011;56317;27.658;85.326;2022-11-20T02:41:15;111.55;;;67.43;;
69203;SDS011;56317;27.658;85.326;2022-11-20T02:43:42;108.70;;;68.10;;
69203;SDS011;56317;27.658;85.326;2022-11-20T02:46:10;106.88;;;64.82;;
69203;SDS011;56317;27.658;85.326;2022-11-20T02:48:37;103.78;;;62.38;;
69203;SDS011;56317;27.658;85.326;2022-11-20T02:51:04;105.05;;;63.90;;
69203;SDS011;56317;27.658;85.326;2022-11-20T02:53:31;102.05;;;62.72;;
69203;SDS011;56317;27.658;85.326;2022-11-20T02:55:59;101.10;;;61.55;;
69203;SDS011;56317;27.658;85.326;2022-11-20T02:58:26;107.80;;;66.65;;
69203;SDS011;56317;27.658;85.326;2022-11-20T03:00:53;102.28;;;63.75;;
69203;SDS011;56317;27.658;85.326;2022-11-20T03:03:20;107.03;;;64.47;;
69203;SDS011;56317;27.658;85.326;2022-11-20T03:05:47;105.60;;;61.60;;
69203;SDS011;56317;27.658;85.326;2022-11-20T03:08:15;108.25;;;63.28;;
69203;SDS011;56317;27.658;85.326;2022-11-20T03:10:42;108.20;;;64.32;;
69203;SDS011;56317;27.658;85.326;2022-11-20T03:13:09;113.15;;;65.18;;
69203;SDS011;56317;27.658;85.326;2022-11-20T03:15:36;112.03;;;66.47;;
69203;SDS011;56317;27.658;85.326;2022-11-20T03:18:04;109.15;;;66.45;;
69203;SDS011;56317;27.658;85.326;2022-11-20T03:20:32;106.68;;;66.63;;
69203;SDS011;56317;27.658;85.326;2022-11-20T03:23:00;110.05;;;66.22;;
69203;SDS011;56317;27.658;85.326;2022-11-20T03:25:46;97.93;;;62.15;;
69203;SDS011;56317;27.658;85.326;2022-11-20T03:28:16;96.95;;;60.80;;
69203;SDS011;56317;27.658;85.326;2022-11-20T03:30:43;93.38;;;60.35;;
69203;SDS011;56317;27.658;85.326;2022-11-20T03:33:10;88.47;;;58.03;;
69203;SDS011;56317;27.658;85.326;2022-11-20T03:35:37;87.78;;;56.80;;
69203;SDS011;56317;27.658;85.326;2022-11-20T03:38:04;92.85;;;55.28;;
69203;SDS011;56317;27.658;85.326;2022-11-20T03:40:33;87.53;;;54.88;;
69203;SDS011;56317;27.658;85.326;2022-11-20T03:43:01;85.25;;;55.58;;
69203;SDS011;56317;27.658;85.326;2022-11-20T03:45:28;84.97;;;52.83;;
69203;SDS011;56317;27.658;85.326;2022-11-20T03:47:55;85.43;;;53.80;;
69203;SDS011;56317;27.658;85.326;2022-11-20T03:50:22;84.07;;;53.55;;
69203;SDS011;56317;27.658;85.326;2022-11-20T03:52:50;79.25;;;54.38;;
69203;SDS011;56317;27.658;85.326;2022-11-20T03:55:20;85.10;;;53.22;;
69203;SDS011;56317;27.658;85.326;2022-11-20T03:57:47;75.60;;;49.92;;
69203;SDS011;56317;27.658;85.326;2022-11-20T04:00:14;81.25;;;51.72;;
69203;SDS011;56317;27.658;85.326;2022-11-20T04:02:42;80.38;;;49.95;;
69203;SDS011;56317;27.658;85.326;2022-11-20T04:05:09;80.95;;;51.35;;
69203;SDS011;56317;27.658;85.326;2022-11-20T04:07:36;79.10;;;53.20;;
69203;SDS011;56317;27.658;85.326;2022-11-20T04:10:06;78.28;;;52.85;;
69203;SDS011;56317;27.658;85.326;2022-11-20T04:12:33;83.82;;;52.22;;
69203;SDS011;56317;27.658;85.326;2022-11-20T04:15:01;77.50;;;49.80;;
69203;SDS011;56317;27.658;85.326;2022-11-20T04:17:28;70.57;;;46.97;;
69203;SDS011;56317;27.658;85.326;2022-11-20T04:19:55;71.80;;;47.40;;
69203;SDS011;56317;27.658;85.326;2022-11-20T04:22:24;72.47;;;48.55;;
69203;SDS011;56317;27.658;85.326;2022-11-20T04:24:54;67.88;;;47.47;;
69203;SDS011;56317;27.658;85.326;2022-11-20T04:27:22;72.45;;;47.58;;
69203;SDS011;56317;27.658;85.326;2022-11-20T04:29:49;66.28;;;46.60;;
69203;SDS011;56317;27.658;85.326;2022-11-20T04:32:16;74.88;;;47.58;;
69203;SDS011;56317;27.658;85.326;2022-11-20T04:34:43;69.85;;;46.95;;
69203;SDS011;56317;27.658;85.326;2022-11-20T04:37:10;67.60;;;46.75;;
69203;SDS011;56317;27.658;85.326;2022-11-20T04:39:38;70.80;;;45.97;;
69203;SDS011;56317;27.658;85.326;2022-11-20T04:42:08;64.75;;;46.53;;
69203;SDS011;56317;27.658;85.326;2022-11-20T04:44:54;62.53;;;45.95;;
69203;SDS011;56317;27.658;85.326;2022-11-20T04:47:22;61.20;;;45.75;;
69203;SDS011;56317;27.658;85.326;2022-11-20T04:49:53;64.95;;;46.03;;
69203;SDS011;56317;27.658;85.326;2022-11-20T04:52:20;62.53;;;45.22;;
69203;SDS011;56317;27.658;85.326;2022-11-20T04:54:47;63.08;;;43.90;;
69203;SDS011;56317;27.658;85.326;2022-11-20T04:57:18;70.60;;;45.38;;
69203;SDS011;56317;27.658;85.326;2022-11-20T04:59:46;68.53;;;44.35;;
69203;SDS011;56317;27.658;85.326;2022-11-20T05:02:15;92.25;;;48.15;;
69203;SDS011;56317;27.658;85.326;2022-11-20T05:04:42;67.55;;;46.15;;
69203;SDS011;56317;27.658;85.326;2022-11-20T05:07:09;84.05;;;47.30;;
69203;SDS011;56317;27.658;85.326;2022-11-20T05:09:36;71.72;;;46.10;;
69203;SDS011;56317;27.658;85.326;2022-11-20T05:12:04;78.43;;;44.92;;
69203;SDS011;56317;27.658;85.326;2022-11-20T05:14:32;62.25;;;44.13;;
69203;SDS011;56317;27.658;85.326;2022-11-20T05:17:00;63.78;;;43.13;;
69203;SDS011;56317;27.658;85.326;2022-11-20T05:19:27;64.55;;;43.92;;
69203;SDS011;56317;27.658;85.326;2022-11-20T05:21:54;62.65;;;44.22;;
69203;SDS011;56317;27.658;85.326;2022-11-20T05:24:21;62.55;;;43.38;;
69203;SDS011;56317;27.658;85.326;2022-11-20T05:26:52;62.75;;;45.30;;
69203;SDS011;56317;27.658;85.326;2022-11-20T05:29:19;57.70;;;41.83;;
69203;SDS011;56317;27.658;85.326;2022-11-20T05:31:46;64.30;;;44.35;;
69203;SDS011;56317;27.658;85.326;2022-11-20T05:34:13;61.35;;;42.75;;
69203;SDS011;56317;27.658;85.326;2022-11-20T05:36:40;59.72;;;42.70;;
69203;SDS011;56317;27.658;85.326;2022-11-20T05:39:08;58.33;;;41.28;;
69203;SDS011;56317;27.658;85.326;2022-11-20T05:41:41;65.03;;;44.50;;
69203;SDS011;56317;27.658;85.326;2022-11-20T05:44:11;58.05;;;40.40;;
69203;SDS011;56317;27.658;85.326;2022-11-20T05:49:05;56.45;;;40.55;;
69203;SDS011;56317;27.658;85.326;2022-11-20T05:51:34;56.58;;;41.03;;
69203;SDS011;56317;27.658;85.326;2022-11-20T05:54:02;47.53;;;35.92;;
69203;SDS011;56317;27.658;85.326;2022-11-20T05:59:20;50.42;;;34.92;;
69203;SDS011;56317;27.658;85.326;2022-11-20T06:01:47;44.85;;;32.30;;
69203;SDS011;56317;27.658;85.326;2022-11-20T06:04:14;40.50;;;31.30;;
69203;SDS011;56317;27.658;85.326;2022-11-20T06:06:54;48.35;;;31.92;;
69203;SDS011;56317;27.658;85.326;2022-11-20T06:09:26;45.58;;;32.38;;
69203;SDS011;56317;27.658;85.326;2022-11-20T06:11:54;42.63;;;29.88;;
69203;SDS011;56317;27.658;85.326;2022-11-20T06:14:24;40.38;;;30.77;;
69203;SDS011;56317;27.658;85.326;2022-11-20T06:19:42;41.00;;;29.58;;
69203;SDS011;56317;27.658;85.326;2022-11-20T06:22:09;41.05;;;29.65;;
69203;SDS011;56317;27.658;85.326;2022-11-20T06:24:37;42.97;;;31.33;;
69203;SDS011;56317;27.658;85.326;2022-11-20T06:27:04;42.58;;;30.50;;
69203;SDS011;56317;27.658;85.326;2022-11-20T06:29:31;44.35;;;30.95;;
69203;SDS011;56317;27.658;85.326;2022-11-20T06:31:59;39.90;;;28.55;;
69203;SDS011;56317;27.658;85.326;2022-11-20T06:34:27;43.40;;;29.67;;
69203;SDS011;56317;27.658;85.326;2022-11-20T06:36:54;44.45;;;29.90;;
69203;SDS011;56317;27.658;85.326;2022-11-20T06:39:21;40.60;;;28.67;;
69203;SDS011;56317;27.658;85.326;2022-11-20T06:41:48;40.00;;;28.77;;
69203;SDS011;56317;27.658;85.326;2022-11-20T06:44:16;35.05;;;27.58;;
69203;SDS011;56317;27.658;85.326;2022-11-20T06:46:43;37.00;;;26.02;;
69203;SDS011;56317;27.658;85.326;2022-11-20T06:49:10;34.83;;;25.45;;
69203;SDS011;56317;27.658;85.326;2022-11-20T06:51:37;33.95;;;23.90;;
69203;SDS011;56317;27.658;85.326;2022-11-20T06:54:05;32.95;;;22.33;;
69203;SDS011;56317;27.658;85.326;2022-11-20T06:56:32;32.85;;;21.58;;
69203;SDS011;56317;27.658;85.326;2022-11-20T06:59:03;31.55;;;22.70;;
69203;SDS011;56317;27.658;85.326;2022-11-20T07:01:31;31.83;;;23.55;;
69203;SDS011;56317;27.658;85.326;2022-11-20T07:03:58;34.80;;;22.98;;
69203;SDS011;56317;27.658;85.326;2022-11-20T07:06:26;31.35;;;23.02;;
69203;SDS011;56317;27.658;85.326;2022-11-20T07:08:53;29.52;;;22.20;;
69203;SDS011;56317;27.658;85.326;2022-11-20T07:11:20;26.52;;;21.35;;
69203;SDS011;56317;27.658;85.326;2022-11-20T07:13:47;30.00;;;20.38;;
69203;SDS011;56317;27.658;85.326;2022-11-20T07:16:15;28.52;;;20.65;;
69203;SDS011;56317;27.658;85.326;2022-11-20T07:18:42;35.40;;;21.85;;
69203;SDS011;56317;27.658;85.326;2022-11-20T07:21:10;28.65;;;22.80;;
69203;SDS011;56317;27.658;85.326;2022-11-20T07:23:46;25.83;;;20.48;;
69203;SDS011;56317;27.658;85.326;2022-11-20T07:26:13;30.13;;;20.33;;
69203;SDS011;56317;27.658;85.326;2022-11-20T07:28:43;25.92;;;18.73;;
69203;SDS011;56317;27.658;85.326;2022-11-20T07:31:11;25.63;;;18.70;;
69203;SDS011;56317;27.658;85.326;2022-11-20T07:33:38;24.45;;;17.52;;
69203;SDS011;56317;27.658;85.326;2022-11-20T07:36:05;26.77;;;16.83;;
69203;SDS011;56317;27.658;85.326;2022-11-20T07:38:33;23.90;;;16.67;;
69203;SDS011;56317;27.658;85.326;2022-11-20T07:41:00;24.30;;;16.50;;
69203;SDS011;56317;27.658;85.326;2022-11-20T07:43:27;23.13;;;16.73;;
69203;SDS011;56317;27.658;85.326;2022-11-20T07:45:56;25.73;;;16.77;;
69203;SDS011;56317;27.658;85.326;2022-11-20T07:48:24;20.90;;;16.15;;
69203;SDS011;56317;27.658;85.326;2022-11-20T07:50:55;24.80;;;16.95;;
69203;SDS011;56317;27.658;85.326;2022-11-20T07:53:23;25.35;;;17.60;;
69203;SDS011;56317;27.658;85.326;2022-11-20T07:55:50;28.23;;;20.42;;
69203;SDS011;56317;27.658;85.326;2022-11-20T07:58:18;23.52;;;17.73;;
69203;SDS011;56317;27.658;85.326;2022-11-20T08:00:46;28.95;;;16.95;;
69203;SDS011;56317;27.658;85.326;2022-11-20T08:03:13;21.75;;;16.60;;
69203;SDS011;56317;27.658;85.326;2022-11-20T08:06:03;23.98;;;16.52;;
69203;SDS011;56317;27.658;85.326;2022-11-20T08:08:33;25.13;;;16.27;;
69203;SDS011;56317;27.658;85.326;2022-11-20T08:11:01;28.15;;;16.70;;
69203;SDS011;56317;27.658;85.326;2022-11-20T08:13:46;27.80;;;18.30;;
69203;SDS011;56317;27.658;85.326;2022-11-20T08:16:31;28.40;;;17.83;;
69203;SDS011;56317;27.658;85.326;2022-11-20T08:19:00;28.45;;;17.27;;
69203;SDS011;56317;27.658;85.326;2022-11-20T08:21:27;25.45;;;16.67;;
69203;SDS011;56317;27.658;85.326;2022-11-20T08:23:56;23.45;;;20.40;;
69203;SDS011;56317;27.658;85.326;2022-11-20T08:26:24;25.25;;;17.08;;
69203;SDS011;56317;27.658;85.326;2022-11-20T08:28:58;27.23;;;17.83;;
69203;SDS011;56317;27.658;85.326;2022-11-20T08:31:26;24.38;;;16.48;;
69203;SDS011;56317;27.658;85.326;2022-11-20T08:33:54;20.70;;;16.05;;
69203;SDS011;56317;27.658;85.326;2022-11-20T08:36:22;21.27;;;16.13;;
69203;SDS011;56317;27.658;85.326;2022-11-20T08:38:50;28.77;;;16.73;;
69203;SDS011;56317;27.658;85.326;2022-11-20T08:41:19;24.50;;;16.85;;
69203;SDS011;56317;27.658;85.326;2022-11-20T08:43:52;28.17;;;17.40;;
69203;SDS011;56317;27.658;85.326;2022-11-20T08:46:21;25.85;;;17.50;;
69203;SDS011;56317;27.658;85.326;2022-11-20T08:48:50;24.67;;;17.63;;
69203;SDS011;56317;27.658;85.326;2022-11-20T08:51:17;25.98;;;17.45;;
69203;SDS011;56317;27.658;85.326;2022-11-20T08:53:45;21.42;;;17.70;;
69203;SDS011;56317;27.658;85.326;2022-11-20T08:56:14;33.13;;;18.65;;
69203;SDS011;56317;27.658;85.326;2022-11-20T08:58:42;26.55;;;17.80;;
69203;SDS011;56317;27.658;85.326;2022-11-20T09:01:09;24.80;;;17.95;;
69203;SDS011;56317;27.658;85.326;2022-11-20T09:03:37;27.50;;;18.50;;
69203;SDS011;56317;27.658;85.326;2022-11-20T09:06:05;27.10;;;18.65;;
69203;SDS011;56317;27.658;85.326;2022-11-20T09:08:33;37.50;;;18.55;;
69203;SDS011;56317;27.658;85.326;2022-11-20T09:11:02;28.88;;;18.77;;
69203;SDS011;56317;27.658;85.326;2022-11-20T09:13:30;25.20;;;18.45;;
69203;SDS011;56317;27.658;85.326;2022-11-20T09:15:58;25.63;;;17.95;;
69203;SDS011;56317;27.658;85.326;2022-11-20T09:18:28;30.60;;;20.33;;
69203;SDS011;56317;27.658;85.326;2022-11-20T09:20:57;27.55;;;19.08;;
69203;SDS011;56317;27.658;85.326;2022-11-20T09:23:26;31.50;;;18.45;;
69203;SDS011;56317;27.658;85.326;2022-11-20T09:25:57;28.27;;;19.27;;
69203;SDS011;56317;27.658;85.326;2022-11-20T09:28:25;29.75;;;19.58;;
69203;SDS011;56317;27.658;85.326;2022-11-20T09:30:53;25.38;;;17.27;;
69203;SDS011;56317;27.658;85.326;2022-11-20T09:33:20;27.63;;;16.17;;
69203;SDS011;56317;27.658;85.326;2022-11-20T09:35:47;26.33;;;15.95;;
69203;SDS011;56317;27.658;85.326;2022-11-20T09:38:14;21.40;;;15.98;;
69203;SDS011;56317;27.658;85.326;2022-11-20T09:40:58;21.65;;;16.15;;
69203;SDS011;56317;27.658;85.326;2022-11-20T09:54:53;31.15;;;17.40;;
69203;SDS011;56317;27.658;85.326;2022-11-20T09:57:21;25.80;;;17.30;;
69203;SDS011;56317;27.658;85.326;2022-11-20T10:00:04;27.33;;;17.05;;
69203;SDS011;56317;27.658;85.326;2022-11-20T10:05:21;30.17;;;18.02;;
69203;SDS011;56317;27.658;85.326;2022-11-20T10:08:08;26.85;;;18.60;;
69203;SDS011;56317;27.658;85.326;2022-11-20T10:13:38;33.08;;;20.40;;
69203;SDS011;56317;27.658;85.326;2022-11-20T10:22:30;37.40;;;23.20;;
69203;SDS011;56317;27.658;85.326;2022-11-20T10:25:13;37.97;;;23.23;;
69203;SDS011;56317;27.658;85.326;2022-11-20T10:27:50;37.28;;;22.88;;
69203;SDS011;56317;27.658;85.326;2022-11-20T10:30:40;34.50;;;21.80;;
69203;SDS011;56317;27.658;85.326;2022-11-20T10:33:16;38.67;;;22.23;;
69203;SDS011;56317;27.658;85.326;2022-11-20T10:38:35;38.08;;;23.80;;
69203;SDS011;56317;27.658;85.326;2022-11-20T10:41:10;37.45;;;22.85;;
69203;SDS011;56317;27.658;85.326;2022-11-20T10:44:09;37.80;;;23.92;;
69203;SDS011;56317;27.658;85.326;2022-11-20T10:46:39;38.45;;;23.85;;
69203;SDS011;56317;27.658;85.326;2022-11-20T10:49:14;36.60;;;24.50;;
69203;SDS011;56317;27.658;85.326;2022-11-20T10:51:53;44.92;;;25.58;;
69203;SDS011;56317;27.658;85.326;2022-11-20T10:54:50;39.45;;;24.73;;
69203;SDS011;56317;27.658;85.326;2022-11-20T11:00:32;40.55;;;25.25;;
69203;SDS011;56317;27.658;85.326;2022-11-20T11:03:00;44.38;;;25.65;;
69203;SDS011;56317;27.658;85.326;2022-11-20T11:05:32;44.55;;;27.02;;
69203;SDS011;56317;27.658;85.326;2022-11-20T11:08:00;49.00;;;27.83;;
69203;SDS011;56317;27.658;85.326;2022-11-20T11:13:26;41.42;;;27.45;;
69203;SDS011;56317;27.658;85.326;2022-11-20T11:15:58;48.75;;;30.15;;
69203;SDS011;56317;27.658;85.326;2022-11-20T11:18:29;51.40;;;30.75;;
69203;SDS011;56317;27.658;85.326;2022-11-20T11:20:59;46.95;;;30.42;;
69203;SDS011;56317;27.658;85.326;2022-11-20T11:26:01;59.92;;;34.67;;
69203;SDS011;56317;27.658;85.326;2022-11-20T11:28:30;69.22;;;39.13;;
69203;SDS011;56317;27.658;85.326;2022-11-20T11:30:58;72.90;;;41.60;;
69203;SDS011;56317;27.658;85.326;2022-11-20T11:33:31;68.53;;;41.10;;
69203;SDS011;56317;27.658;85.326;2022-11-20T11:36:00;82.65;;;43.47;;
69203;SDS011;56317;27.658;85.326;2022-11-20T11:38:42;71.00;;;38.92;;
69203;SDS011;56317;27.658;85.326;2022-11-20T11:41:20;78.85;;;42.28;;
69203;SDS011;56317;27.658;85.326;2022-11-20T11:43:56;74.82;;;41.05;;
69203;SDS011;56317;27.658;85.326;2022-11-20T11:46:55;68.45;;;39.40;;
69203;SDS011;56317;27.658;85.326;2022-11-20T11:49:24;79.95;;;39.08;;
69203;SDS011;56317;27.658;85.326;2022-11-20T11:52:07;82.22;;;39.42;;
69203;SDS011;56317;27.658;85.326;2022-11-20T11:55:02;74.50;;;38.37;;
69203;SDS011;56317;27.658;85.326;2022-11-20T11:57:41;70.03;;;39.67;;
69203;SDS011;56317;27.658;85.326;2022-11-20T12:00:21;71.97;;;39.80;;
69203;SDS011;56317;27.658;85.326;2022-11-20T12:02:54;75.43;;;42.38;;
69203;SDS011;56317;27.658;85.326;2022-11-20T12:05:42;84.13;;;44.90;;
69203;SDS011;56317;27.658;85.326;2022-11-20T12:10:57;90.78;;;49.47;;
69203;SDS011;56317;27.658;85.326;2022-11-20T12:16:10;97.43;;;54.67;;
69203;SDS011;56317;27.658;85.326;2022-11-20T12:18:40;112.45;;;63.72;;
69203;SDS011;56317;27.658;85.326;2022-11-20T12:24:10;118.95;;;63.58;;
69203;SDS011;56317;27.658;85.326;2022-11-20T12:30:21;85.28;;;49.28;;
69203;SDS011;56317;27.658;85.326;2022-11-20T12:32:54;87.25;;;53.38;;
69203;SDS011;56317;27.658;85.326;2022-11-20T12:36:16;94.97;;;52.17;;
69203;SDS011;56317;27.658;85.326;2022-11-20T12:50:25;103.30;;;58.15;;
69203;SDS011;56317;27.658;85.326;2022-11-20T13:07:58;135.68;;;76.60;;
69203;SDS011;56317;27.658;85.326;2022-11-20T13:13:23;114.38;;;73.35;;
69203;SDS011;56317;27.658;85.326;2022-11-20T13:18:51;144.13;;;80.65;;
69203;SDS011;56317;27.658;85.326;2022-11-20T13:21:20;136.60;;;80.60;;
69203;SDS011;56317;27.658;85.326;2022-11-20T13:23:49;127.93;;;71.47;;
69203;SDS011;56317;27.658;85.326;2022-11-20T13:26:17;131.32;;;75.05;;
69203;SDS011;56317;27.658;85.326;2022-11-20T13:28:47;132.25;;;75.43;;
69203;SDS011;56317;27.658;85.326;2022-11-20T13:31:35;128.63;;;75.43;;
69203;SDS011;56317;27.658;85.326;2022-11-20T13:34:09;133.43;;;73.03;;
69203;SDS011;56317;27.658;85.326;2022-11-20T13:37:01;133.63;;;74.85;;
69203;SDS011;56317;27.658;85.326;2022-11-20T13:39:30;141.95;;;79.22;;
69203;SDS011;56317;27.658;85.326;2022-11-20T13:42:02;130.43;;;73.03;;
69203;SDS011;56317;27.658;85.326;2022-11-20T13:44:44;117.30;;;67.68;;
69203;SDS011;56317;27.658;85.326;2022-11-20T13:47:26;120.07;;;67.25;;
69203;SDS011;56317;27.658;85.326;2022-11-20T13:49:58;102.22;;;59.80;;
69203;SDS011;56317;27.658;85.326;2022-11-20T13:55:05;112.97;;;60.83;;
69203;SDS011;56317;27.658;85.326;2022-11-20T14:00:23;116.40;;;62.58;;
69203;SDS011;56317;27.658;85.326;2022-11-20T14:05:54;94.57;;;55.17;;
69203;SDS011;56317;27.658;85.326;2022-11-20T14:08:46;90.65;;;53.38;;
69203;SDS011;56317;27.658;85.326;2022-11-20T14:13:54;97.45;;;52.20;;
69203;SDS011;56317;27.658;85.326;2022-11-20T14:16:23;81.18;;;47.05;;
69203;SDS011;56317;27.658;85.326;2022-11-20T14:18:52;91.82;;;49.33;;
69203;SDS011;56317;27.658;85.326;2022-11-20T14:21:27;89.72;;;50.28;;
69203;SDS011;56317;27.658;85.326;2022-11-20T14:24:05;92.20;;;51.70;;
69203;SDS011;56317;27.658;85.326;2022-11-20T14:26:37;100.45;;;55.40;;
69203;SDS011;56317;27.658;85.326;2022-11-20T14:29:14;90.50;;;51.90;;
69203;SDS011;56317;27.658;85.326;2022-11-20T14:31:44;110.45;;;54.65;;
69203;SDS011;56317;27.658;85.326;2022-11-20T14:34:17;110.55;;;58.20;;
69203;SDS011;56317;27.658;85.326;2022-11-20T14:36:59;103.22;;;54.60;;
69203;SDS011;56317;27.658;85.326;2022-11-20T14:39:32;106.65;;;55.60;;
69203;SDS011;56317;27.658;85.326;2022-11-20T14:42:13;103.75;;;55.78;;
69203;SDS011;56317;27.658;85.326;2022-11-20T14:44:49;110.65;;;58.67;;
69203;SDS011;56317;27.658;85.326;2022-11-20T14:47:20;103.28;;;56.28;;
69203;SDS011;56317;27.658;85.326;2022-11-20T14:49:50;106.65;;;54.03;;
69203;SDS011;56317;27.658;85.326;2022-11-20T14:52:19;105.72;;;54.08;;
69203;SDS011;56317;27.658;85.326;2022-11-20T14:54:57;108.40;;;54.40;;
69203;SDS011;56317;27.658;85.326;2022-11-20T14:57:31;100.38;;;52.80;;
69203;SDS011;56317;27.658;85.326;2022-11-20T15:00:04;102.35;;;53.17;;
69203;SDS011;56317;27.658;85.326;2022-11-20T15:02:45;98.10;;;55.08;;
69203;SDS011;56317;27.658;85.326;2022-11-20T15:05:14;94.18;;;54.22;;
69203;SDS011;56317;27.658;85.326;2022-11-20T15:07:44;96.57;;;58.20;;
69203;SDS011;56317;27.658;85.326;2022-11-20T15:10:23;103.83;;;55.83;;
69203;SDS011;56317;27.658;85.326;2022-11-20T15:12:53;98.22;;;52.38;;
69203;SDS011;56317;27.658;85.326;2022-11-20T15:15:29;95.07;;;51.58;;
69203;SDS011;56317;27.658;85.326;2022-11-20T15:17:57;99.07;;;53.00;;
69203;SDS011;56317;27.658;85.326;2022-11-20T15:20:32;87.68;;;50.45;;
69203;SDS011;56317;27.658;85.326;2022-11-20T15:23:02;99.80;;;51.20;;
69203;SDS011;56317;27.658;85.326;2022-11-20T15:25:34;93.40;;;51.30;;
69203;SDS011;56317;27.658;85.326;2022-11-20T15:28:04;82.10;;;49.00;;
69203;SDS011;56317;27.658;85.326;2022-11-20T15:30:35;92.70;;;51.28;;
69203;SDS011;56317;27.658;85.326;2022-11-20T15:33:03;93.07;;;54.17;;
69203;SDS011;56317;27.658;85.326;2022-11-20T15:35:31;91.55;;;54.60;;
69203;SDS011;56317;27.658;85.326;2022-11-20T15:37:58;103.60;;;54.80;;
69203;SDS011;56317;27.658;85.326;2022-11-20T15:40:25;100.40;;;56.90;;
69203;SDS011;56317;27.658;85.326;2022-11-20T15:42:53;95.40;;;55.45;;
69203;SDS011;56317;27.658;85.326;2022-11-20T15:45:30;106.43;;;57.10;;
69203;SDS011;56317;27.658;85.326;2022-11-20T15:48:03;102.13;;;57.30;;
69203;SDS011;56317;27.658;85.326;2022-11-20T15:53:41;94.82;;;57.28;;
69203;SDS011;56317;27.658;85.326;2022-11-20T15:56:12;108.82;;;59.22;;
69203;SDS011;56317;27.658;85.326;2022-11-20T15:58:40;105.00;;;59.72;;
69203;SDS011;56317;27.658;85.326;2022-11-20T16:01:17;108.10;;;61.78;;
69203;SDS011;56317;27.658;85.326;2022-11-20T16:03:48;112.53;;;63.92;;
69203;SDS011;56317;27.658;85.326;2022-11-20T16:06:15;114.82;;;63.45;;
69203;SDS011;56317;27.658;85.326;2022-11-20T16:08:42;123.03;;;66.30;;
69203;SDS011;56317;27.658;85.326;2022-11-20T16:11:13;110.65;;;64.03;;
69203;SDS011;56317;27.658;85.326;2022-11-20T16:13:42;104.43;;;59.35;;